sensor_id;sensor_type;location;lat;lon;timestamp;pressure;altitude;pressure_sealevel;temperature;humidity
78573;BME280;67862;0.000;0.000;2024-01-25T00:01:21;99309.72;;;21.94;55.77
78573;BME280;67862;0.000;0.000;2024-01-25T00:03:46;99307.00;;;21.94;55.74
78573;BME280;67862;0.000;0.000;2024-01-25T00:06:11;99315.72;;;21.96;55.70
78573;BME280;67862;0.000;0.000;2024-01-25T00:08:37;99301.22;;;21.96;55.50
78573;BME280;67862;0.000;0.000;2024-01-25T00:11:02;99300.72;;;21.94;55.45
78573;BME280;67862;0.000;0.000;2024-01-25T00:13:28;99297.97;;;21.94;55.74
78573;BME280;67862;0.000;0.000;2024-01-25T00:15:53;99292.22;;;21.95;55.76
78573;BME280;67862;0.000;0.000;2024-01-25T00:18:19;99299.91;;;21.93;55.55
78573;BME280;67862;0.000;0.000;2024-01-25T00:20:45;99300.72;;;21.94;55.55
78573;BME280;67862;0.000;0.000;2024-01-25T00:23:10;99299.31;;;21.96;55.32
78573;BME280;67862;0.000;0.000;2024-01-25T00:25:36;99296.56;;;21.96;55.44
78573;BME280;67862;0.000;0.000;2024-01-25T00:28:01;99292.22;;;21.95;55.49
78573;BME280;67862;0.000;0.000;2024-01-25T00:30:27;99286.44;;;21.97;55.20
78573;BME280;67862;0.000;0.000;2024-01-25T00:32:52;99285.94;;;21.95;55.38
78573;BME280;67862;0.000;0.000;2024-01-25T00:35:18;99289.47;;;21.95;55.27
78573;BME280;67862;0.000;0.000;2024-01-25T00:37:43;99291.41;;;21.95;55.08
78573;BME280;67862;0.000;0.000;2024-01-25T00:40:11;99289.47;;;21.95;55.00
78573;BME280;67862;0.000;0.000;2024-01-25T00:42:45;99296.88;;;21.95;55.19
78573;BME280;67862;0.000;0.000;2024-01-25T00:45:18;99295.53;;;21.92;55.17
78573;BME280;67862;0.000;0.000;2024-01-25T00:47:43;99287.84;;;21.94;55.02
78573;BME280;67862;0.000;0.000;2024-01-25T00:50:09;99298.50;;;21.96;54.61
78573;BME280;67862;0.000;0.000;2024-01-25T00:52:34;99300.13;;;21.97;54.88
78573;BME280;67862;0.000;0.000;2024-01-25T00:55:01;99294.94;;;21.95;54.98
78573;BME280;67862;0.000;0.000;2024-01-25T00:57:26;99302.03;;;21.96;54.77
78573;BME280;67862;0.000;0.000;2024-01-25T00:59:52;99288.97;;;21.93;54.85
78573;BME280;67862;0.000;0.000;2024-01-25T01:02:17;99292.81;;;21.92;54.81
78573;BME280;67862;0.000;0.000;2024-01-25T01:04:45;99285.72;;;21.91;54.73
78573;BME280;67862;0.000;0.000;2024-01-25T01:07:10;99294.72;;;21.92;55.15
78573;BME280;67862;0.000;0.000;2024-01-25T01:09:36;99286.53;;;21.92;54.70
78573;BME280;67862;0.000;0.000;2024-01-25T01:12:01;99287.34;;;21.92;55.07
78573;BME280;67862;0.000;0.000;2024-01-25T01:14:26;99292.25;;;21.90;54.76
78573;BME280;67862;0.000;0.000;2024-01-25T01:16:52;99290.06;;;21.92;54.55
78573;BME280;67862;0.000;0.000;2024-01-25T01:19:17;99292.25;;;21.90;54.95
78573;BME280;67862;0.000;0.000;2024-01-25T01:21:43;99271.50;;;21.89;54.87
78573;BME280;67862;0.000;0.000;2024-01-25T01:24:12;99290.63;;;21.89;54.73
78573;BME280;67862;0.000;0.000;2024-01-25T01:26:37;99292.25;;;21.90;54.57
78573;BME280;67862;0.000;0.000;2024-01-25T01:29:03;99286.78;;;21.90;54.57
78573;BME280;67862;0.000;0.000;2024-01-25T01:31:28;99281.31;;;21.90;54.48
78573;BME280;67862;0.000;0.000;2024-01-25T01:33:53;99289.00;;;21.88;54.46
78573;BME280;67862;0.000;0.000;2024-01-25T01:36:19;99266.03;;;21.89;54.75
78573;BME280;67862;0.000;0.000;2024-01-25T01:38:45;99271.25;;;21.91;54.38
78573;BME280;67862;0.000;0.000;2024-01-25T01:41:10;99279.69;;;21.89;54.59
78573;BME280;67862;0.000;0.000;2024-01-25T01:43:39;99267.13;;;21.88;54.51
78573;BME280;67862;0.000;0.000;2024-01-25T01:46:07;99273.13;;;21.90;54.48
78573;BME280;67862;0.000;0.000;2024-01-25T01:48:35;99266.34;;;21.88;54.14
78573;BME280;67862;0.000;0.000;2024-01-25T01:51:00;99264.41;;;21.88;54.25
78573;BME280;67862;0.000;0.000;2024-01-25T01:53:26;99268.25;;;21.87;54.15
78573;BME280;67862;0.000;0.000;2024-01-25T01:55:51;99265.53;;;21.87;54.75
78573;BME280;67862;0.000;0.000;2024-01-25T01:58:17;99262.28;;;21.85;54.30
78573;BME280;67862;0.000;0.000;2024-01-25T02:00:43;99260.34;;;21.86;54.17
78573;BME280;67862;0.000;0.000;2024-01-25T02:03:11;99265.31;;;21.84;54.24
78573;BME280;67862;0.000;0.000;2024-01-25T02:05:36;99262.84;;;21.82;54.06
78573;BME280;67862;0.000;0.000;2024-01-25T02:08:02;99256.81;;;21.85;54.49
78573;BME280;67862;0.000;0.000;2024-01-25T02:10:27;99261.16;;;21.86;54.59
78573;BME280;67862;0.000;0.000;2024-01-25T02:12:53;99254.28;;;21.89;54.45
78573;BME280;67862;0.000;0.000;2024-01-25T02:15:18;99252.97;;;21.86;54.03
78573;BME280;67862;0.000;0.000;2024-01-25T02:17:43;99243.66;;;21.87;54.33
78573;BME280;67862;0.000;0.000;2024-01-25T02:20:09;99243.13;;;21.85;54.03
78573;BME280;67862;0.000;0.000;2024-01-25T02:22:34;99235.53;;;21.82;54.18
78573;BME280;67862;0.000;0.000;2024-01-25T02:25:00;99225.41;;;21.83;54.30
78573;BME280;67862;0.000;0.000;2024-01-25T02:27:25;99239.88;;;21.83;54.43
78573;BME280;67862;0.000;0.000;2024-01-25T02:29:50;99246.47;;;21.82;54.07
78573;BME280;67862;0.000;0.000;2024-01-25T02:32:16;99247.28;;;21.83;54.34
78573;BME280;67862;0.000;0.000;2024-01-25T02:34:41;99239.63;;;21.80;54.27
78573;BME280;67862;0.000;0.000;2024-01-25T02:37:06;99233.38;;;21.79;54.20
78573;BME280;67862;0.000;0.000;2024-01-25T02:39:32;99238.31;;;21.77;54.21
78573;BME280;67862;0.000;0.000;2024-01-25T02:41:57;99239.94;;;21.78;54.11
78573;BME280;67862;0.000;0.000;2024-01-25T02:44:23;99238.31;;;21.77;54.26
78573;BME280;67862;0.000;0.000;2024-01-25T02:46:48;99245.41;;;21.78;54.37
78573;BME280;67862;0.000;0.000;2024-01-25T02:49:13;99225.97;;;21.80;54.24
78573;BME280;67862;0.000;0.000;2024-01-25T02:51:38;99244.84;;;21.81;54.29
78573;BME280;67862;0.000;0.000;2024-01-25T02:54:04;99237.50;;;21.77;54.21
78573;BME280;67862;0.000;0.000;2024-01-25T02:56:29;99235.28;;;21.79;53.98
78573;BME280;67862;0.000;0.000;2024-01-25T02:59:00;99237.19;;;21.78;54.17
78573;BME280;67862;0.000;0.000;2024-01-25T03:01:25;99239.13;;;21.78;54.10
78573;BME280;67862;0.000;0.000;2024-01-25T03:03:51;99244.88;;;21.76;54.29
78573;BME280;67862;0.000;0.000;2024-01-25T03:06:16;99242.97;;;21.77;54.35
78573;BME280;67862;0.000;0.000;2024-01-25T03:08:41;99242.97;;;21.77;54.12
78573;BME280;67862;0.000;0.000;2024-01-25T03:11:07;99226.56;;;21.77;54.36
78573;BME280;67862;0.000;0.000;2024-01-25T03:13:32;99224.13;;;21.75;54.33
78573;BME280;67862;0.000;0.000;2024-01-25T03:15:59;99220.59;;;21.75;54.20
78573;BME280;67862;0.000;0.000;2024-01-25T03:18:24;99225.25;;;21.74;54.05
78573;BME280;67862;0.000;0.000;2024-01-25T03:20:50;99223.63;;;21.73;54.21
78573;BME280;67862;0.000;0.000;2024-01-25T03:23:16;99231.81;;;21.73;53.69
78573;BME280;67862;0.000;0.000;2024-01-25T03:25:42;99224.13;;;21.75;54.40
78573;BME280;67862;0.000;0.000;2024-01-25T03:28:07;99222.50;;;21.74;54.25
78573;BME280;67862;0.000;0.000;2024-01-25T03:30:34;99231.00;;;21.73;54.23
78573;BME280;67862;0.000;0.000;2024-01-25T03:33:00;99222.72;;;21.78;54.35
78573;BME280;67862;0.000;0.000;2024-01-25T03:35:25;99235.06;;;21.75;53.85
78573;BME280;67862;0.000;0.000;2024-01-25T03:37:50;99226.88;;;21.75;54.38
78573;BME280;67862;0.000;0.000;2024-01-25T03:40:16;99227.16;;;21.74;53.99
78573;BME280;67862;0.000;0.000;2024-01-25T03:42:41;99230.72;;;21.74;53.96
78573;BME280;67862;0.000;0.000;2024-01-25T03:45:07;99223.66;;;21.68;54.29
78573;BME280;67862;0.000;0.000;2024-01-25T03:47:32;99213.84;;;21.67;54.37
78573;BME280;67862;0.000;0.000;2024-01-25T03:49:57;99220.94;;;21.68;54.24
78573;BME280;67862;0.000;0.000;2024-01-25T03:52:23;99221.75;;;21.68;54.48
78573;BME280;67862;0.000;0.000;2024-01-25T03:54:48;99223.66;;;21.68;54.56
78573;BME280;67862;0.000;0.000;2024-01-25T03:57:14;99211.94;;;21.67;54.32
78573;BME280;67862;0.000;0.000;2024-01-25T03:59:39;99219.00;;;21.68;54.02
78573;BME280;67862;0.000;0.000;2024-01-25T04:02:05;99216.28;;;21.68;54.18
78573;BME280;67862;0.000;0.000;2024-01-25T04:04:30;99211.94;;;21.67;54.27
78573;BME280;67862;0.000;0.000;2024-01-25T04:06:55;99220.41;;;21.66;54.15
78573;BME280;67862;0.000;0.000;2024-01-25T04:09:21;99209.50;;;21.66;54.05
78573;BME280;67862;0.000;0.000;2024-01-25T04:11:46;99216.06;;;21.65;54.12
78573;BME280;67862;0.000;0.000;2024-01-25T04:14:11;99210.00;;;21.68;54.27
78573;BME280;67862;0.000;0.000;2024-01-25T04:16:36;99219.91;;;21.64;54.20
78573;BME280;67862;0.000;0.000;2024-01-25T04:19:02;99207.56;;;21.66;54.24
78573;BME280;67862;0.000;0.000;2024-01-25T04:21:27;99206.81;;;21.61;54.48
78573;BME280;67862;0.000;0.000;2024-01-25T04:23:53;99203.50;;;21.64;54.11
78573;BME280;67862;0.000;0.000;2024-01-25T04:26:19;99197.53;;;21.62;54.49
78573;BME280;67862;0.000;0.000;2024-01-25T04:28:44;99203.00;;;21.62;53.92
78573;BME280;67862;0.000;0.000;2024-01-25T04:31:09;99191.22;;;21.61;53.92
78573;BME280;67862;0.000;0.000;2024-01-25T04:33:35;99193.44;;;21.59;54.24
78573;BME280;67862;0.000;0.000;2024-01-25T04:36:00;99192.63;;;21.59;54.18
78573;BME280;67862;0.000;0.000;2024-01-25T04:38:26;99201.34;;;21.61;53.95
78573;BME280;67862;0.000;0.000;2024-01-25T04:40:51;99193.44;;;21.59;54.31
78573;BME280;67862;0.000;0.000;2024-01-25T04:43:16;99185.53;;;21.58;54.32
78573;BME280;67862;0.000;0.000;2024-01-25T04:45:42;99207.63;;;21.61;54.24
78573;BME280;67862;0.000;0.000;2024-01-25T04:48:07;99211.44;;;21.60;53.97
78573;BME280;67862;0.000;0.000;2024-01-25T04:50:32;99218.28;;;21.63;53.93
78573;BME280;67862;0.000;0.000;2024-01-25T04:52:58;99213.06;;;21.61;54.02
78573;BME280;67862;0.000;0.000;2024-01-25T04:55:23;99221.06;;;21.58;53.86
78573;BME280;67862;0.000;0.000;2024-01-25T04:57:49;99228.44;;;21.57;53.84
78573;BME280;67862;0.000;0.000;2024-01-25T05:00:18;99229.25;;;21.58;53.29
78573;BME280;67862;0.000;0.000;2024-01-25T05:02:43;99232.78;;;21.58;53.09
78573;BME280;67862;0.000;0.000;2024-01-25T05:05:09;99244.00;;;21.57;53.24
78573;BME280;67862;0.000;0.000;2024-01-25T05:07:34;99244.53;;;21.59;53.01
78573;BME280;67862;0.000;0.000;2024-01-25T05:10:00;99252.72;;;21.59;53.14
78573;BME280;67862;0.000;0.000;2024-01-25T05:12:25;99244.22;;;21.60;53.19
78573;BME280;67862;0.000;0.000;2024-01-25T05:14:50;99255.44;;;21.59;53.23
78573;BME280;67862;0.000;0.000;2024-01-25T05:17:16;99251.31;;;21.61;52.78
78573;BME280;67862;0.000;0.000;2024-01-25T05:19:41;99274.03;;;21.62;52.88
78573;BME280;67862;0.000;0.000;2024-01-25T05:22:06;99259.25;;;21.63;52.74
78573;BME280;67862;0.000;0.000;2024-01-25T05:24:33;99263.59;;;21.64;53.11
78573;BME280;67862;0.000;0.000;2024-01-25T05:26:58;99257.34;;;21.63;52.69
78573;BME280;67862;0.000;0.000;2024-01-25T05:29:23;99258.97;;;21.64;52.56
78573;BME280;67862;0.000;0.000;2024-01-25T05:31:49;99273.44;;;21.65;52.55
78573;BME280;67862;0.000;0.000;2024-01-25T05:34:15;99277.78;;;21.66;52.53
78573;BME280;67862;0.000;0.000;2024-01-25T05:36:40;99267.38;;;21.68;52.54
78573;BME280;67862;0.000;0.000;2024-01-25T05:39:07;99277.50;;;21.67;52.48
78573;BME280;67862;0.000;0.000;2024-01-25T05:41:32;99278.81;;;21.70;52.30
78573;BME280;67862;0.000;0.000;2024-01-25T05:43:58;99257.78;;;21.70;52.56
78573;BME280;67862;0.000;0.000;2024-01-25T05:46:24;99262.72;;;21.68;52.40
78573;BME280;67862;0.000;0.000;2024-01-25T05:48:50;99255.03;;;21.70;52.49
78573;BME280;67862;0.000;0.000;2024-01-25T05:51:15;99262.44;;;21.70;52.35
78573;BME280;67862;0.000;0.000;2024-01-25T05:53:40;99269.53;;;21.71;52.49
78573;BME280;67862;0.000;0.000;2024-01-25T05:56:06;99268.44;;;21.72;52.28
78573;BME280;67862;0.000;0.000;2024-01-25T05:58:31;99262.16;;;21.71;52.50
78573;BME280;67862;0.000;0.000;2024-01-25T06:00:57;99264.31;;;21.75;52.67
78573;BME280;67862;0.000;0.000;2024-01-25T06:03:22;99260.75;;;21.74;52.80
78573;BME280;67862;0.000;0.000;2024-01-25T06:05:47;99256.09;;;21.75;52.43
78573;BME280;67862;0.000;0.000;2024-01-25T06:08:13;99249.84;;;21.74;52.47
78573;BME280;67862;0.000;0.000;2024-01-25T06:10:38;99242.97;;;21.77;52.47
78573;BME280;67862;0.000;0.000;2024-01-25T06:13:04;99242.66;;;21.78;52.64
78573;BME280;67862;0.000;0.000;2024-01-25T06:15:30;99234.47;;;21.78;52.66
78573;BME280;67862;0.000;0.000;2024-01-25T06:17:56;99236.91;;;21.80;52.03
78573;BME280;67862;0.000;0.000;2024-01-25T06:20:22;99239.38;;;21.81;52.03
78573;BME280;67862;0.000;0.000;2024-01-25T06:22:50;99232.25;;;21.80;52.58
78573;BME280;67862;0.000;0.000;2024-01-25T06:25:16;99236.66;;;21.81;52.45
78573;BME280;67862;0.000;0.000;2024-01-25T06:27:41;99242.63;;;21.83;52.41
78573;BME280;67862;0.000;0.000;2024-01-25T06:30:07;99237.16;;;21.83;52.71
78573;BME280;67862;0.000;0.000;2024-01-25T06:32:32;99236.34;;;21.83;52.71
78573;BME280;67862;0.000;0.000;2024-01-25T06:34:57;99229.78;;;21.84;52.43
78573;BME280;67862;0.000;0.000;2024-01-25T06:37:23;99228.66;;;21.85;52.68
78573;BME280;67862;0.000;0.000;2024-01-25T06:39:48;99232.50;;;21.84;52.83
78573;BME280;67862;0.000;0.000;2024-01-25T06:42:14;99242.03;;;21.86;52.62
78573;BME280;67862;0.000;0.000;2024-01-25T06:44:39;99234.34;;;21.88;52.43
78573;BME280;67862;0.000;0.000;2024-01-25T06:47:04;99237.69;;;21.85;52.13
78573;BME280;67862;0.000;0.000;2024-01-25T06:49:30;99242.09;;;21.81;51.28
78573;BME280;67862;0.000;0.000;2024-01-25T06:51:55;99241.25;;;21.81;52.39
78573;BME280;67862;0.000;0.000;2024-01-25T06:54:20;99243.72;;;21.82;51.50
78573;BME280;67862;0.000;0.000;2024-01-25T06:56:46;99244.53;;;21.83;51.52
78573;BME280;67862;0.000;0.000;2024-01-25T06:59:11;99246.47;;;21.82;51.38
78573;BME280;67862;0.000;0.000;2024-01-25T07:01:37;99242.63;;;21.83;51.29
78573;BME280;67862;0.000;0.000;2024-01-25T07:04:02;99241.81;;;21.83;51.46
78573;BME280;67862;0.000;0.000;2024-01-25T07:06:30;99240.19;;;21.82;51.06
78573;BME280;67862;0.000;0.000;2024-01-25T07:08:55;99241.81;;;21.83;51.19
78573;BME280;67862;0.000;0.000;2024-01-25T07:11:21;99250.53;;;21.85;51.38
78573;BME280;67862;0.000;0.000;2024-01-25T07:13:46;99251.63;;;21.84;50.97
78573;BME280;67862;0.000;0.000;2024-01-25T07:16:11;99241.00;;;21.82;51.20
78573;BME280;67862;0.000;0.000;2024-01-25T07:18:37;99240.69;;;21.84;50.82
78573;BME280;67862;0.000;0.000;2024-01-25T07:21:15;99235.25;;;21.84;50.67
78573;BME280;67862;0.000;0.000;2024-01-25T07:23:40;99244.25;;;21.84;50.92
78573;BME280;67862;0.000;0.000;2024-01-25T07:26:05;99244.53;;;21.83;50.99
78573;BME280;67862;0.000;0.000;2024-01-25T07:28:31;99234.44;;;21.83;50.78
78573;BME280;67862;0.000;0.000;2024-01-25T07:30:56;99247.56;;;21.81;50.71
78573;BME280;67862;0.000;0.000;2024-01-25T07:33:21;99258.22;;;21.83;50.72
78573;BME280;67862;0.000;0.000;2024-01-25T07:35:47;99261.75;;;21.83;50.97
78573;BME280;67862;0.000;0.000;2024-01-25T07:38:13;99257.41;;;21.82;50.73
78573;BME280;67862;0.000;0.000;2024-01-25T07:40:39;99264.47;;;21.83;50.61
78573;BME280;67862;0.000;0.000;2024-01-25T07:43:04;99264.47;;;21.83;50.69
78573;BME280;67862;0.000;0.000;2024-01-25T07:45:30;99282.00;;;21.82;50.73
78573;BME280;67862;0.000;0.000;2024-01-25T07:47:56;99276.53;;;21.82;50.78
78573;BME280;67862;0.000;0.000;2024-01-25T07:50:21;99285.53;;;21.83;50.93
78573;BME280;67862;0.000;0.000;2024-01-25T07:52:47;99283.09;;;21.81;50.55
78573;BME280;67862;0.000;0.000;2024-01-25T07:55:12;99300.31;;;21.82;50.82
78573;BME280;67862;0.000;0.000;2024-01-25T07:57:37;99309.31;;;21.82;50.65
78573;BME280;67862;0.000;0.000;2024-01-25T08:00:03;99308.22;;;21.83;50.59
78573;BME280;67862;0.000;0.000;2024-01-25T08:02:29;99314.22;;;21.80;50.88
78573;BME280;67862;0.000;0.000;2024-01-25T08:04:55;99319.69;;;21.80;50.67
78573;BME280;67862;0.000;0.000;2024-01-25T08:07:22;99312.31;;;21.81;50.72
78573;BME280;67862;0.000;0.000;2024-01-25T08:09:47;99325.16;;;21.80;50.79
78573;BME280;67862;0.000;0.000;2024-01-25T08:12:17;99323.53;;;21.79;50.50
78573;BME280;67862;0.000;0.000;2024-01-25T08:14:42;99328.44;;;21.82;50.74
78573;BME280;67862;0.000;0.000;2024-01-25T08:17:09;99321.63;;;21.80;50.59
78573;BME280;67862;0.000;0.000;2024-01-25T08:19:34;99324.34;;;21.80;50.94
78573;BME280;67862;0.000;0.000;2024-01-25T08:22:12;99310.69;;;21.80;50.46
78573;BME280;67862;0.000;0.000;2024-01-25T08:24:38;99320.81;;;21.79;50.54
78573;BME280;67862;0.000;0.000;2024-01-25T08:27:04;99320.81;;;21.79;50.48
78573;BME280;67862;0.000;0.000;2024-01-25T08:29:30;99325.16;;;21.80;50.23
78573;BME280;67862;0.000;0.000;2024-01-25T08:31:55;99323.53;;;21.79;50.85
78573;BME280;67862;0.000;0.000;2024-01-25T08:34:21;99331.22;;;21.77;50.50
78573;BME280;67862;0.000;0.000;2024-01-25T08:36:46;99323.53;;;21.79;50.25
78573;BME280;67862;0.000;0.000;2024-01-25T08:39:11;99320.81;;;21.79;50.41
78573;BME280;67862;0.000;0.000;2024-01-25T08:41:37;99319.69;;;21.80;50.68
78573;BME280;67862;0.000;0.000;2024-01-25T08:44:02;99321.91;;;21.78;50.68
78573;BME280;67862;0.000;0.000;2024-01-25T08:46:28;99340.75;;;21.80;50.31
78573;BME280;67862;0.000;0.000;2024-01-25T08:48:53;99346.22;;;21.80;50.31
78573;BME280;67862;0.000;0.000;2024-01-25T08:51:19;99346.22;;;21.80;50.58
78573;BME280;67862;0.000;0.000;2024-01-25T08:53:44;99343.47;;;21.80;50.61
78573;BME280;67862;0.000;0.000;2024-01-25T08:56:09;99368.63;;;21.82;50.22
78573;BME280;67862;0.000;0.000;2024-01-25T08:58:35;99358.78;;;21.81;50.08
78573;BME280;67862;0.000;0.000;2024-01-25T09:01:00;99358.78;;;21.81;50.41
78573;BME280;67862;0.000;0.000;2024-01-25T09:03:26;99365.09;;;21.81;50.27
78573;BME280;67862;0.000;0.000;2024-01-25T09:05:51;99357.97;;;21.80;50.55
78573;BME280;67862;0.000;0.000;2024-01-25T09:08:17;99358.25;;;21.79;50.20
78573;BME280;67862;0.000;0.000;2024-01-25T09:10:42;99360.16;;;21.78;50.21
78573;BME280;67862;0.000;0.000;2024-01-25T09:13:08;99365.09;;;21.81;50.46
78573;BME280;67862;0.000;0.000;2024-01-25T09:15:34;99358.25;;;21.79;50.37
78573;BME280;67862;0.000;0.000;2024-01-25T09:17:59;99367.25;;;21.79;50.43
78573;BME280;67862;0.000;0.000;2024-01-25T09:20:24;99371.09;;;21.78;50.17
78573;BME280;67862;0.000;0.000;2024-01-25T09:22:51;99379.28;;;21.78;50.25
78573;BME280;67862;0.000;0.000;2024-01-25T09:25:16;99362.09;;;21.78;50.11
78573;BME280;67862;0.000;0.000;2024-01-25T09:27:41;99365.63;;;21.78;50.13
78573;BME280;67862;0.000;0.000;2024-01-25T09:30:07;99375.75;;;21.78;50.09
78573;BME280;67862;0.000;0.000;2024-01-25T09:32:33;99364.53;;;21.79;50.11
78573;BME280;67862;0.000;0.000;2024-01-25T09:34:58;99358.53;;;21.77;50.15
78573;BME280;67862;0.000;0.000;2024-01-25T09:37:24;99366.75;;;21.77;50.14
78573;BME280;67862;0.000;0.000;2024-01-25T09:39:50;99355.28;;;21.75;50.13
78573;BME280;67862;0.000;0.000;2024-01-25T09:42:17;99361.78;;;21.79;50.13
78573;BME280;67862;0.000;0.000;2024-01-25T09:44:43;99361.25;;;21.82;49.90
78573;BME280;67862;0.000;0.000;2024-01-25T09:47:09;99365.59;;;21.83;50.27
78573;BME280;67862;0.000;0.000;2024-01-25T09:49:34;99361.25;;;21.82;50.09
78573;BME280;67862;0.000;0.000;2024-01-25T09:52:01;99353.56;;;21.84;49.79
78573;BME280;67862;0.000;0.000;2024-01-25T09:54:32;99370.81;;;21.80;49.91
78573;BME280;67862;0.000;0.000;2024-01-25T09:56:59;99364.00;;;21.77;50.40
78573;BME280;67862;0.000;0.000;2024-01-25T09:59:24;99376.63;;;21.73;50.37
78573;BME280;67862;0.000;0.000;2024-01-25T10:01:49;99362.16;;;21.73;50.09
78573;BME280;67862;0.000;0.000;2024-01-25T10:04:15;99360.97;;;21.79;49.99
78573;BME280;67862;0.000;0.000;2024-01-25T10:06:44;99358.53;;;21.77;50.21
78573;BME280;67862;0.000;0.000;2024-01-25T10:09:09;99367.25;;;21.79;49.85
78573;BME280;67862;0.000;0.000;2024-01-25T10:11:35;99370.53;;;21.81;50.13
78573;BME280;67862;0.000;0.000;2024-01-25T10:14:02;99376.00;;;21.81;50.03
78573;BME280;67862;0.000;0.000;2024-01-25T10:16:28;99358.84;;;21.76;49.70
78573;BME280;67862;0.000;0.000;2024-01-25T10:18:54;99361.88;;;21.74;50.12
78573;BME280;67862;0.000;0.000;2024-01-25T10:21:20;99353.16;;;21.72;50.12
78573;BME280;67862;0.000;0.000;2024-01-25T10:23:46;99349.03;;;21.69;49.94
78573;BME280;67862;0.000;0.000;2024-01-25T10:26:12;99371.47;;;21.71;49.89
78573;BME280;67862;0.000;0.000;2024-01-25T10:28:37;99349.03;;;21.69;50.26
78573;BME280;67862;0.000;0.000;2024-01-25T10:31:03;99336.78;;;21.67;50.34
78573;BME280;67862;0.000;0.000;2024-01-25T10:33:33;99349.03;;;21.69;49.82
78573;BME280;67862;0.000;0.000;2024-01-25T10:35:59;99340.84;;;21.69;50.10
78573;BME280;67862;0.000;0.000;2024-01-25T10:38:30;99334.06;;;21.67;49.77
78573;BME280;67862;0.000;0.000;2024-01-25T10:40:57;99329.69;;;21.66;49.70
78573;BME280;67862;0.000;0.000;2024-01-25T10:43:39;99341.44;;;21.66;50.14
78573;BME280;67862;0.000;0.000;2024-01-25T10:46:04;99342.25;;;21.67;50.12
78573;BME280;67862;0.000;0.000;2024-01-25T10:48:31;99343.66;;;21.64;50.18
78573;BME280;67862;0.000;0.000;2024-01-25T10:50:57;99335.16;;;21.66;50.04
78573;BME280;67862;0.000;0.000;2024-01-25T10:53:24;99334.34;;;21.65;49.89
78573;BME280;67862;0.000;0.000;2024-01-25T10:55:51;99328.88;;;21.65;49.71
78573;BME280;67862;0.000;0.000;2024-01-25T10:58:17;99332.72;;;21.64;49.89
78573;BME280;67862;0.000;0.000;2024-01-25T11:00:52;99342.84;;;21.64;49.99
78573;BME280;67862;0.000;0.000;2024-01-25T11:03:25;99338.47;;;21.63;50.07
78573;BME280;67862;0.000;0.000;2024-01-25T11:05:51;99342.03;;;21.63;50.05
78573;BME280;67862;0.000;0.000;2024-01-25T11:08:19;99341.22;;;21.63;50.08
78573;BME280;67862;0.000;0.000;2024-01-25T11:10:48;99336.00;;;21.61;49.90
78573;BME280;67862;0.000;0.000;2024-01-25T11:13:15;99348.84;;;21.61;49.74
78573;BME280;67862;0.000;0.000;2024-01-25T11:15:40;99332.47;;;21.61;50.04
78573;BME280;67862;0.000;0.000;2024-01-25T11:18:07;99336.31;;;21.60;49.90
78573;BME280;67862;0.000;0.000;2024-01-25T11:20:33;99340.13;;;21.59;49.97
78573;BME280;67862;0.000;0.000;2024-01-25T11:23:02;99334.69;;;21.59;50.06
78573;BME280;67862;0.000;0.000;2024-01-25T11:25:28;99328.41;;;21.58;50.02
78573;BME280;67862;0.000;0.000;2024-01-25T11:27:54;99330.03;;;21.59;49.52
78573;BME280;67862;0.000;0.000;2024-01-25T11:30:19;99315.03;;;21.57;49.62
78573;BME280;67862;0.000;0.000;2024-01-25T11:32:46;99327.59;;;21.58;49.88
78573;BME280;67862;0.000;0.000;2024-01-25T11:35:12;99318.06;;;21.55;49.62
78573;BME280;67862;0.000;0.000;2024-01-25T11:37:48;99320.50;;;21.57;49.70
78573;BME280;67862;0.000;0.000;2024-01-25T11:40:15;99310.69;;;21.56;49.83
78573;BME280;67862;0.000;0.000;2024-01-25T11:42:44;99318.06;;;21.55;49.65
78573;BME280;67862;0.000;0.000;2024-01-25T11:45:12;99304.09;;;21.57;49.31
78573;BME280;67862;0.000;0.000;2024-01-25T11:47:38;99311.50;;;21.56;49.55
78573;BME280;67862;0.000;0.000;2024-01-25T11:50:05;99303.53;;;21.60;49.55
78573;BME280;67862;0.000;0.000;2024-01-25T11:52:31;99295.31;;;21.60;49.45
78573;BME280;67862;0.000;0.000;2024-01-25T11:55:03;99291.47;;;21.61;49.43
78573;BME280;67862;0.000;0.000;2024-01-25T11:57:33;99307.34;;;21.59;49.49
78573;BME280;67862;0.000;0.000;2024-01-25T12:00:00;99283.28;;;21.61;49.37
78573;BME280;67862;0.000;0.000;2024-01-25T12:02:26;99289.56;;;21.61;49.47
78573;BME280;67862;0.000;0.000;2024-01-25T12:04:52;99284.09;;;21.61;49.51
78573;BME280;67862;0.000;0.000;2024-01-25T12:07:19;99288.75;;;21.61;49.60
78573;BME280;67862;0.000;0.000;2024-01-25T12:09:45;99278.91;;;21.65;49.45
78573;BME280;67862;0.000;0.000;2024-01-25T12:12:10;99278.91;;;21.65;49.56
78573;BME280;67862;0.000;0.000;2024-01-25T12:14:36;99289.81;;;21.65;49.69
78573;BME280;67862;0.000;0.000;2024-01-25T12:17:03;99276.69;;;21.67;49.38
78573;BME280;67862;0.000;0.000;2024-01-25T12:19:29;99273.91;;;21.72;48.89
78573;BME280;67862;0.000;0.000;2024-01-25T12:21:55;99293.84;;;21.73;49.10
78573;BME280;67862;0.000;0.000;2024-01-25T12:24:21;99290.53;;;21.76;48.94
78573;BME280;67862;0.000;0.000;2024-01-25T12:26:47;99267.25;;;21.78;48.86
78573;BME280;67862;0.000;0.000;2024-01-25T12:29:12;99268.88;;;21.79;48.90
78573;BME280;67862;0.000;0.000;2024-01-25T12:31:38;99256.81;;;21.85;48.93
78573;BME280;67862;0.000;0.000;2024-01-25T12:34:03;99276.44;;;21.87;48.87
78573;BME280;67862;0.000;0.000;2024-01-25T12:36:38;99275.34;;;21.88;49.13
78573;BME280;67862;0.000;0.000;2024-01-25T12:39:03;99267.97;;;21.89;48.76
78573;BME280;67862;0.000;0.000;2024-01-25T12:41:29;99277.50;;;21.91;48.70
78573;BME280;67862;0.000;0.000;2024-01-25T12:43:54;99273.38;;;21.94;48.99
78573;BME280;67862;0.000;0.000;2024-01-25T12:46:20;99281.78;;;21.97;48.82
78573;BME280;67862;0.000;0.000;2024-01-25T12:48:45;99281.78;;;21.97;48.93
78573;BME280;67862;0.000;0.000;2024-01-25T12:51:11;99289.34;;;22.06;48.54
78573;BME280;67862;0.000;0.000;2024-01-25T12:53:36;99286.06;;;22.09;48.48
78573;BME280;67862;0.000;0.000;2024-01-25T12:56:03;99277.59;;;22.10;48.90
78573;BME280;67862;0.000;0.000;2024-01-25T12:58:28;99274.00;;;22.10;48.37
78573;BME280;67862;0.000;0.000;2024-01-25T13:00:53;99279.78;;;22.08;48.53
78573;BME280;67862;0.000;0.000;2024-01-25T13:03:19;99263.09;;;22.10;48.52